Time,TemperatureF,DewpointF,PressureIn,WindDirection,WindDirectionDegrees,WindSpeedMPH,WindSpeedGustMPH,Humidity,HourlyPrecipIn,Conditions,Clouds,dailyrainin,SoftwareType,DateUTC
2013-04-05 00:01:00,50.8,41.7,30.21,West,278,0.0,5.0,71,0.21,,,0.21,Weather View 32 v70,2013-04-05 05:01:00,
2013-04-05 00:11:00,50.6,41.9,30.21,West,278,0.0,2.0,72,0.00,,,0.00,Weather View 32 v70,2013-04-05 05:11:00,
2013-04-05 00:17:00,50.5,41.8,30.21,West,278,0.0,0.0,72,0.00,,,0.00,Weather View 32 v70,2013-04-05 05:17:00,
2013-04-05 00:27:00,50.1,41.8,30.21,West,278,0.0,0.0,73,0.00,,,0.00,Weather View 32 v70,2013-04-05 05:27:00,
2013-04-05 00:36:00,49.8,41.8,30.21,West,278,0.0,0.0,74,0.00,,,0.00,Weather View 32 v70,2013-04-05 05:36:00,
2013-04-05 00:45:00,49.6,41.6,30.21,West,278,0.0,0.0,74,0.00,,,0.00,Weather View 32 v70,2013-04-05 05:45:00,
2013-04-05 00:51:00,49.4,41.8,30.21,West,278,0.0,0.0,75,0.00,,,0.00,Weather View 32 v70,2013-04-05 05:51:00,
2013-04-05 01:01:00,49.2,41.6,30.21,West,278,0.0,0.0,75,-0.21,,,0.00,Weather View 32 v70,2013-04-05 06:01:00,
2013-04-05 01:07:00,49.2,41.9,30.21,West,278,0.0,0.0,76,0.00,,,0.00,Weather View 32 v70,2013-04-05 06:07:00,
2013-04-05 01:17:00,49.1,41.8,30.21,West,278,0.0,1.0,76,0.00,,,0.00,Weather View 32 v70,2013-04-05 06:17:00,
2013-04-05 01:26:00,48.8,41.9,30.21,West,278,0.0,1.0,77,0.00,,,0.00,Weather View 32 v70,2013-04-05 06:26:00,
2013-04-05 01:32:00,48.8,41.9,30.21,West,278,0.0,1.0,77,0.00,,,0.00,Weather View 32 v70,2013-04-05 06:32:00,
2013-04-05 01:41:00,48.6,41.7,30.21,West,278,0.0,1.0,77,0.00,,,0.00,Weather View 32 v70,2013-04-05 06:41:00,
2013-04-05 01:51:00,48.4,41.8,30.21,West,278,0.0,1.0,78,0.00,,,0.00,Weather View 32 v70,2013-04-05 06:51:00,
2013-04-05 02:01:00,48.1,41.6,30.21,West,278,0.0,1.0,78,0.00,,,0.00,Weather View 32 v70,2013-04-05 07:01:00,
2013-04-05 02:07:00,48.0,41.5,30.21,West,278,0.0,1.0,78,0.00,,,0.00,Weather View 32 v70,2013-04-05 07:07:00,
2013-04-05 02:16:00,47.8,41.6,30.21,West,278,0.0,0.0,79,0.00,,,0.00,Weather View 32 v70,2013-04-05 07:16:00,
2013-04-05 02:26:00,47.5,41.3,30.21,West,278,0.0,0.0,79,0.00,,,0.00,Weather View 32 v70,2013-04-05 07:26:00,
2013-04-05 02:37:00,47.2,41.3,30.20,West,278,0.0,0.0,80,0.00,,,0.00,Weather View 32 v70,2013-04-05 07:37:00,
2013-04-05 02:46:00,46.9,41.0,30.20,West,278,0.0,0.0,80,0.00,,,0.00,Weather View 32 v70,2013-04-05 07:46:00,
2013-04-05 02:56:00,46.5,41.0,30.20,West,278,0.0,0.0,81,0.00,,,0.00,Weather View 32 v70,2013-04-05 07:56:00,
2013-04-05 03:02:00,46.3,40.8,30.20,West,278,0.0,0.0,81,0.00,,,0.00,Weather View 32 v70,2013-04-05 08:02:00,
2013-04-05 03:11:00,46.1,40.9,30.20,West,278,0.0,0.0,82,0.00,,,0.00,Weather View 32 v70,2013-04-05 08:11:00,
2013-04-05 03:16:00,46.0,40.8,30.20,West,278,0.0,0.0,82,0.00,,,0.00,Weather View 32 v70,2013-04-05 08:16:00,
2013-04-05 03:21:00,45.7,40.5,30.20,West,278,0.0,0.0,82,0.00,,,0.00,Weather View 32 v70,2013-04-05 08:21:00,
2013-04-05 03:27:00,45.4,40.2,30.20,West,278,0.0,0.0,82,0.00,,,0.00,Weather View 32 v70,2013-04-05 08:27:00,
2013-04-05 03:36:00,44.9,40.0,30.20,West,278,0.0,0.0,83,0.00,,,0.00,Weather View 32 v70,2013-04-05 08:36:00,
2013-04-05 03:46:00,44.5,40.0,30.20,West,278,0.0,0.0,84,0.00,,,0.00,Weather View 32 v70,2013-04-05 08:46:00,
2013-04-05 03:56:00,44.4,40.2,30.20,West,278,0.0,0.0,85,0.00,,,0.00,Weather View 32 v70,2013-04-05 08:56:00,
2013-04-05 04:01:00,44.2,40.0,30.20,West,278,0.0,0.0,85,0.00,,,0.00,Weather View 32 v70,2013-04-05 09:01:00,
2013-04-05 04:11:00,43.7,39.5,30.20,West,278,0.0,0.0,85,0.00,,,0.00,Weather View 32 v70,2013-04-05 09:11:00,
2013-04-05 04:22:00,44.0,40.1,30.21,West,278,0.0,0.0,86,0.00,,,0.00,Weather View 32 v70,2013-04-05 09:22:00,
2013-04-05 04:31:00,44.3,40.4,30.21,West,278,0.0,0.0,86,0.00,,,0.00,Weather View 32 v70,2013-04-05 09:31:00,
2013-04-05 04:36:00,44.5,40.6,30.21,West,278,0.0,0.0,86,0.00,,,0.00,Weather View 32 v70,2013-04-05 09:36:00,
2013-04-05 04:41:00,44.7,40.8,30.22,West,278,0.0,0.0,86,0.00,,,0.00,Weather View 32 v70,2013-04-05 09:41:00,
2013-04-05 04:47:00,44.8,40.6,30.22,West,278,3.0,3.0,85,0.00,,,0.00,Weather View 32 v70,2013-04-05 09:47:00,
2013-04-05 04:56:00,45.0,40.8,30.22,West,278,0.0,4.0,85,0.00,,,0.00,Weather View 32 v70,2013-04-05 09:56:00,
2013-04-05 05:01:00,45.0,40.8,30.22,West,278,0.0,4.0,85,0.00,,,0.00,Weather View 32 v70,2013-04-05 10:01:00,
2013-04-05 05:06:00,45.0,40.8,30.22,West,278,0.0,4.0,85,0.00,,,0.00,Weather View 32 v70,2013-04-05 10:06:00,
2013-04-05 05:11:00,45.0,40.8,30.22,West,278,0.0,4.0,85,0.00,,,0.00,Weather View 32 v70,2013-04-05 10:11:00,
2013-04-05 05:21:00,45.0,40.8,30.22,West,278,0.0,4.0,85,0.00,,,0.00,Weather View 32 v70,2013-04-05 10:21:00,
2013-04-05 05:32:00,44.7,40.5,30.22,West,278,0.0,4.0,85,0.00,,,0.00,Weather View 32 v70,2013-04-05 10:32:00,
2013-04-05 05:41:00,44.5,40.3,30.22,West,278,0.0,4.0,85,0.00,,,0.00,Weather View 32 v70,2013-04-05 10:41:00,
2013-04-05 05:46:00,44.3,40.1,30.22,West,278,0.0,4.0,85,0.00,,,0.00,Weather View 32 v70,2013-04-05 10:46:00,
2013-04-05 05:56:00,44.1,40.2,30.21,West,278,0.0,1.0,86,0.00,,,0.00,Weather View 32 v70,2013-04-05 10:56:00,
2013-04-05 06:02:00,44.0,40.1,30.21,West,278,0.0,0.0,86,0.00,,,0.00,Weather View 32 v70,2013-04-05 11:02:00,
2013-04-05 06:11:00,43.6,39.7,30.22,West,278,0.0,0.0,86,0.00,,,0.00,Weather View 32 v70,2013-04-05 11:11:00,
2013-04-05 06:16:00,43.3,39.4,30.22,West,278,0.0,0.0,86,0.00,,,0.00,Weather View 32 v70,2013-04-05 11:16:00,
2013-04-05 06:26:00,42.9,39.3,30.22,West,278,0.0,0.0,87,0.00,,,0.00,Weather View 32 v70,2013-04-05 11:26:00,
2013-04-05 06:37:00,42.8,39.2,30.23,West,278,0.0,0.0,87,0.00,,,0.00,Weather View 32 v70,2013-04-05 11:37:00,
2013-04-05 06:46:00,42.7,39.4,30.22,West,278,0.0,0.0,88,0.00,,,0.00,Weather View 32 v70,2013-04-05 11:46:00,
2013-04-05 06:51:00,42.7,39.4,30.22,West,278,0.0,0.0,88,0.00,,,0.00,Weather View 32 v70,2013-04-05 11:51:00,
2013-04-05 06:56:00,42.7,39.4,30.22,West,278,0.0,0.0,88,0.00,,,0.00,Weather View 32 v70,2013-04-05 11:56:00,
2013-04-05 07:06:00,42.7,39.4,30.22,West,278,0.0,0.0,88,0.00,,,0.00,Weather View 32 v70,2013-04-05 12:06:00,
2013-04-05 07:16:00,42.4,39.1,30.23,West,278,0.0,0.0,88,0.00,,,0.00,Weather View 32 v70,2013-04-05 12:16:00,
2013-04-05 07:21:00,42.3,39.0,30.23,West,278,0.0,0.0,88,0.00,,,0.00,Weather View 32 v70,2013-04-05 12:21:00,
2013-04-05 07:26:00,42.2,38.9,30.23,West,278,0.0,0.0,88,0.00,,,0.00,Weather View 32 v70,2013-04-05 12:26:00,
2013-04-05 07:36:00,42.2,39.2,30.24,West,278,0.0,1.0,89,0.00,,,0.00,Weather View 32 v70,2013-04-05 12:36:00,
2013-04-05 07:46:00,42.8,40.1,30.25,West,278,0.0,1.0,90,0.00,,,0.00,Weather View 32 v70,2013-04-05 12:46:00,
2013-04-05 07:52:00,43.1,40.4,30.24,West,278,0.0,1.0,90,0.00,,,0.00,Weather View 32 v70,2013-04-05 12:52:00,
2013-04-05 08:01:00,44.6,41.3,30.25,West,278,0.0,1.0,88,0.00,,,0.00,Weather View 32 v70,2013-04-05 13:01:00,
2013-04-05 08:06:00,45.3,41.7,30.25,West,278,0.0,1.0,87,0.00,,,0.00,Weather View 32 v70,2013-04-05 13:06:00,
2013-04-05 08:16:00,46.4,41.5,30.25,West,278,0.0,1.0,83,0.00,,,0.00,Weather View 32 v70,2013-04-05 13:16:00,
2013-04-05 08:22:00,46.5,41.3,30.25,West,278,0.0,1.0,82,0.00,,,0.00,Weather View 32 v70,2013-04-05 13:22:00,
2013-04-05 08:31:00,46.9,41.7,30.25,West,278,0.0,0.0,82,0.00,,,0.00,Weather View 32 v70,2013-04-05 13:31:00,
2013-04-05 08:41:00,47.5,42.0,30.25,West,278,0.0,0.0,81,0.00,,,0.00,Weather View 32 v70,2013-04-05 13:41:00,
2013-04-05 08:46:00,47.8,41.9,30.25,West,278,0.0,0.0,80,0.00,,,0.00,Weather View 32 v70,2013-04-05 13:46:00,
2013-04-05 08:56:00,48.4,42.2,30.25,West,278,0.0,0.0,79,0.00,,,0.00,Weather View 32 v70,2013-04-05 13:56:00,
2013-04-05 09:06:00,49.0,42.4,30.26,West,278,0.0,0.0,78,0.00,,,0.00,Weather View 32 v70,2013-04-05 14:06:00,
2013-04-05 09:12:00,49.4,42.8,30.26,West,278,0.0,0.0,78,0.00,,,0.00,Weather View 32 v70,2013-04-05 14:12:00,
2013-04-05 09:21:00,50.6,43.3,30.26,West,278,0.0,3.0,76,0.00,,,0.00,Weather View 32 v70,2013-04-05 14:21:00,
2013-04-05 09:26:00,51.2,43.5,30.26,West,278,0.0,3.0,75,0.00,,,0.00,Weather View 32 v70,2013-04-05 14:26:00,
2013-04-05 09:36:00,51.9,43.1,30.26,West,278,0.0,5.0,72,0.00,,,0.00,Weather View 32 v70,2013-04-05 14:36:00,
2013-04-05 09:42:00,52.1,43.3,30.26,West,278,0.0,5.0,72,0.00,,,0.00,Weather View 32 v70,2013-04-05 14:42:00,
2013-04-05 09:50:00,52.6,43.8,30.26,West,278,0.0,5.0,72,0.00,,,0.00,Weather View 32 v70,2013-04-05 14:50:00,
2013-04-05 09:57:00,54.1,44.1,30.26,West,278,0.0,5.0,69,0.00,,,0.00,Weather View 32 v70,2013-04-05 14:57:00,
2013-04-05 10:06:00,55.0,44.2,30.26,West,278,0.0,5.0,67,0.00,,,0.00,Weather View 32 v70,2013-04-05 15:06:00,
2013-04-05 10:11:00,55.4,43.8,30.26,West,278,0.0,5.0,65,0.00,,,0.00,Weather View 32 v70,2013-04-05 15:11:00,
2013-04-05 10:21:00,56.1,44.1,30.26,West,276,0.0,5.0,64,0.00,,,0.00,Weather View 32 v70,2013-04-05 15:21:00,
2013-04-05 10:26:00,56.5,44.0,30.25,West,276,0.0,5.0,63,0.00,,,0.00,Weather View 32 v70,2013-04-05 15:26:00,
2013-04-05 10:31:00,56.9,44.4,30.25,West,276,0.0,5.0,63,0.00,,,0.00,Weather View 32 v70,2013-04-05 15:31:00,
2013-04-05 10:41:00,57.8,43.1,30.25,SSE,160,0.0,6.0,58,0.00,,,0.00,Weather View 32 v70,2013-04-05 15:41:00,
2013-04-05 10:46:00,57.7,43.0,30.24,SSE,160,1.0,6.0,58,0.00,,,0.00,Weather View 32 v70,2013-04-05 15:46:00,
2013-04-05 10:51:00,58.1,44.3,30.25,SSE,161,0.0,6.0,60,0.00,,,0.00,Weather View 32 v70,2013-04-05 15:51:00,
2013-04-05 11:01:00,58.6,42.9,30.25,South,176,3.0,7.0,56,0.00,,,0.00,Weather View 32 v70,2013-04-05 16:01:00,
2013-04-05 11:11:00,59.0,42.8,30.25,South,170,1.0,7.0,55,0.00,,,0.00,Weather View 32 v70,2013-04-05 16:11:00,
2013-04-05 11:16:00,59.1,43.4,30.25,South,169,0.0,7.0,56,0.00,,,0.00,Weather View 32 v70,2013-04-05 16:16:00,
2013-04-05 11:26:00,59.7,42.5,30.25,South,170,5.0,8.0,53,0.00,,,0.00,Weather View 32 v70,2013-04-05 16:26:00,
2013-04-05 11:31:00,60.0,42.8,30.24,SSE,160,4.0,8.0,53,0.00,,,0.00,Weather View 32 v70,2013-04-05 16:31:00,
2013-04-05 11:41:00,60.6,43.3,30.24,South,185,3.0,9.0,53,0.00,,,0.00,Weather View 32 v70,2013-04-05 16:41:00,
2013-04-05 11:47:00,60.8,42.0,30.24,SSW,192,4.0,9.0,50,0.00,,,0.00,Weather View 32 v70,2013-04-05 16:47:00,
2013-04-05 11:56:00,61.1,42.3,30.24,SSW,206,2.0,9.0,50,0.00,,,0.00,Weather View 32 v70,2013-04-05 16:56:00,
2013-04-05 12:02:00,61.3,41.9,30.24,South,185,0.0,9.0,49,0.00,,,0.00,Weather View 32 v70,2013-04-05 17:02:00,
2013-04-05 12:11:00,61.6,42.2,30.24,SSW,206,2.0,9.0,49,0.00,,,0.00,Weather View 32 v70,2013-04-05 17:11:00,
2013-04-05 12:16:00,61.8,42.4,30.24,SSW,207,0.0,9.0,49,0.00,,,0.00,Weather View 32 v70,2013-04-05 17:16:00,
2013-04-05 12:26:00,62.4,42.4,30.23,SSW,209,8.0,11.0,48,0.00,,,0.00,Weather View 32 v70,2013-04-05 17:26:00,
2013-04-05 12:36:00,62.6,42.0,30.23,SSW,197,0.0,11.0,47,0.00,,,0.00,Weather View 32 v70,2013-04-05 17:36:00,
2013-04-05 12:41:00,63.1,42.5,30.23,South,187,4.0,11.0,47,0.00,,,0.00,Weather View 32 v70,2013-04-05 17:41:00,
2013-04-05 12:51:00,63.4,42.2,30.22,SE,145,0.0,11.0,46,0.00,,,0.00,Weather View 32 v70,2013-04-05 17:51:00,
2013-04-05 13:01:00,63.9,43.2,30.21,SSW,197,2.0,11.0,47,0.00,,,0.00,Weather View 32 v70,2013-04-05 18:01:00,
2013-04-05 13:11:00,64.8,42.3,30.20,SSE,160,1.0,13.0,44,0.00,,,0.00,Weather View 32 v70,2013-04-05 18:11:00,
2013-04-05 13:16:00,64.6,42.1,30.20,SSW,202,7.0,13.0,44,0.00,,,0.00,Weather View 32 v70,2013-04-05 18:16:00,
2013-04-05 13:26:00,65.5,39.2,30.19,South,181,7.0,14.0,38,0.00,,,0.00,Weather View 32 v70,2013-04-05 18:26:00,
2013-04-05 13:36:00,65.9,35.9,30.18,SE,143,8.0,14.0,33,0.00,,,0.00,Weather View 32 v70,2013-04-05 18:36:00,
2013-04-05 13:41:00,65.7,35.7,30.18,SE,135,4.0,14.0,33,0.00,,,0.00,Weather View 32 v70,2013-04-05 18:41:00,
2013-04-05 13:51:00,65.3,37.6,30.17,SSW,192,2.0,14.0,36,0.00,,,0.00,Weather View 32 v70,2013-04-05 18:51:00,
2013-04-05 13:56:00,65.6,36.4,30.17,SSE,155,5.0,14.0,34,0.00,,,0.00,Weather View 32 v70,2013-04-05 18:56:00,
2013-04-05 14:06:00,66.1,37.6,30.16,SSE,151,1.0,14.0,35,0.00,,,0.00,Weather View 32 v70,2013-04-05 19:06:00,
2013-04-05 14:11:00,66.6,38.7,30.16,South,183,8.0,16.0,36,0.00,,,0.00,Weather View 32 v70,2013-04-05 19:11:00,
2013-04-05 14:16:00,66.4,38.6,30.16,South,171,2.0,16.0,36,0.00,,,0.00,Weather View 32 v70,2013-04-05 19:16:00,
2013-04-05 14:26:00,67.2,40.0,30.16,South,183,5.0,16.0,37,0.00,,,0.00,Weather View 32 v70,2013-04-05 19:26:00,
2013-04-05 14:36:00,66.9,41.1,30.14,SSE,147,8.0,16.0,39,0.00,,,0.00,Weather View 32 v70,2013-04-05 19:36:00,
2013-04-05 14:41:00,67.2,41.3,30.14,SSE,159,5.0,16.0,39,0.00,,,0.00,Weather View 32 v70,2013-04-05 19:41:00,
2013-04-05 14:47:00,67.1,41.9,30.14,South,179,0.0,16.0,40,0.00,,,0.00,Weather View 32 v70,2013-04-05 19:47:00,
2013-04-05 14:53:00,67.7,41.8,30.14,SSE,161,1.0,16.0,39,0.00,,,0.00,Weather View 32 v70,2013-04-05 19:53:00,
2013-04-05 15:01:00,67.3,42.1,30.13,SE,131,0.0,16.0,40,0.00,,,0.00,Weather View 32 v70,2013-04-05 20:01:00,
2013-04-05 15:06:00,67.9,42.0,30.13,South,173,2.0,16.0,39,0.00,,,0.00,Weather View 32 v70,2013-04-05 20:06:00,
2013-04-05 15:16:00,67.9,42.0,30.12,SSW,192,5.0,14.0,39,0.00,,,0.00,Weather View 32 v70,2013-04-05 20:16:00,
2013-04-05 15:21:00,68.1,41.5,30.12,SSE,164,3.0,14.0,38,0.00,,,0.00,Weather View 32 v70,2013-04-05 20:21:00,
2013-04-05 15:26:00,68.1,41.5,30.11,SSE,161,3.0,14.0,38,0.00,,,0.00,Weather View 32 v70,2013-04-05 20:26:00,
2013-04-05 15:36:00,68.8,42.8,30.10,South,175,6.0,14.0,39,0.00,,,0.00,Weather View 32 v70,2013-04-05 20:36:00,
2013-04-05 15:41:00,68.9,41.5,30.10,SSE,160,1.0,14.0,37,0.00,,,0.00,Weather View 32 v70,2013-04-05 20:41:00,
2013-04-05 15:46:00,68.8,42.1,30.10,SSW,194,5.0,14.0,38,0.00,,,0.00,Weather View 32 v70,2013-04-05 20:46:00,
2013-04-05 15:51:00,68.6,40.5,30.11,South,171,4.0,13.0,36,0.00,,,0.00,Weather View 32 v70,2013-04-05 20:51:00,
2013-04-05 15:56:00,68.8,41.4,30.10,SSE,164,5.0,13.0,37,0.00,,,0.00,Weather View 32 v70,2013-04-05 20:56:00,
2013-04-05 16:06:00,68.8,40.7,30.10,SSE,156,1.0,16.0,36,0.00,,,0.00,Weather View 32 v70,2013-04-05 21:06:00,
2013-04-05 16:16:00,69.4,41.2,30.10,SSE,147,4.0,16.0,36,0.00,,,0.00,Weather View 32 v70,2013-04-05 21:16:00,
2013-04-05 16:21:00,69.3,40.4,30.09,South,172,3.0,16.0,35,0.00,,,0.00,Weather View 32 v70,2013-04-05 21:21:00,
2013-04-05 16:26:00,69.5,41.3,30.09,SSW,198,8.0,16.0,36,0.00,,,0.00,Weather View 32 v70,2013-04-05 21:26:00,
2013-04-05 16:36:00,69.8,40.8,30.08,SSE,155,3.0,16.0,35,0.00,,,0.00,Weather View 32 v70,2013-04-05 21:36:00,
2013-04-05 16:41:00,69.7,40.8,30.08,South,171,0.0,16.0,35,0.00,,,0.00,Weather View 32 v70,2013-04-05 21:41:00,
2013-04-05 16:46:00,69.9,40.9,30.08,SE,131,3.0,16.0,35,0.00,,,0.00,Weather View 32 v70,2013-04-05 21:46:00,
2013-04-05 16:54:00,69.7,40.8,30.07,SSE,158,2.0,16.0,35,0.00,,,0.00,Weather View 32 v70,2013-04-05 21:54:00,
2013-04-05 17:01:00,69.8,41.6,30.07,South,177,5.0,13.0,36,0.00,,,0.00,Weather View 32 v70,2013-04-05 22:01:00,
2013-04-05 17:06:00,69.6,41.4,30.07,SE,138,5.0,13.0,36,0.00,,,0.00,Weather View 32 v70,2013-04-05 22:06:00,
2013-04-05 17:11:00,69.5,41.3,30.07,South,185,0.0,13.0,36,0.00,,,0.00,Weather View 32 v70,2013-04-05 22:11:00,
2013-04-05 17:21:00,69.6,41.4,30.06,SE,144,2.0,13.0,36,0.00,,,0.00,Weather View 32 v70,2013-04-05 22:21:00,
2013-04-05 17:26:00,69.6,42.1,30.06,SSE,160,1.0,13.0,37,0.00,,,0.00,Weather View 32 v70,2013-04-05 22:26:00,
2013-04-05 17:31:00,69.8,41.6,30.06,SSE,153,1.0,12.0,36,0.00,,,0.00,Weather View 32 v70,2013-04-05 22:31:00,
2013-04-05 17:36:00,69.7,42.2,30.06,SSE,155,0.0,12.0,37,0.00,,,0.00,Weather View 32 v70,2013-04-05 22:36:00,
2013-04-05 17:46:00,69.5,41.3,30.05,South,170,2.0,15.0,36,0.00,,,0.00,Weather View 32 v70,2013-04-05 22:46:00,
2013-04-05 17:51:00,69.7,42.2,30.05,South,181,4.0,15.0,37,0.00,,,0.00,Weather View 32 v70,2013-04-05 22:51:00,
2013-04-05 18:01:00,69.6,42.1,30.04,South,176,2.0,15.0,37,0.00,,,0.00,Weather View 32 v70,2013-04-05 23:01:00,
2013-04-05 18:06:00,69.3,41.1,30.04,South,169,6.0,15.0,36,0.00,,,0.00,Weather View 32 v70,2013-04-05 23:06:00,
2013-04-05 18:16:00,69.3,41.8,30.04,SE,136,4.0,15.0,37,0.00,,,0.00,Weather View 32 v70,2013-04-05 23:16:00,
2013-04-05 18:26:00,69.2,41.8,30.04,South,170,0.0,15.0,37,0.00,,,0.00,Weather View 32 v70,2013-04-05 23:26:00,
2013-04-05 18:31:00,69.1,41.7,30.04,SSE,164,6.0,15.0,37,0.00,,,0.00,Weather View 32 v70,2013-04-05 23:31:00,
2013-04-05 18:36:00,68.9,42.2,30.03,South,177,0.0,15.0,38,0.00,,,0.00,Weather View 32 v70,2013-04-05 23:36:00,
2013-04-05 18:41:00,68.8,42.8,30.03,SE,127,4.0,11.0,39,0.00,,,0.00,Weather View 32 v70,2013-04-05 23:41:00,
2013-04-05 18:51:00,68.6,43.3,30.03,SE,136,2.0,12.0,40,0.00,,,0.00,Weather View 32 v70,2013-04-05 23:51:00,
2013-04-05 19:01:00,67.9,43.9,30.03,SSE,153,6.0,12.0,42,0.00,,,0.00,Weather View 32 v70,2013-04-06 00:01:00,
2013-04-05 19:06:00,67.6,44.2,30.03,SSE,152,0.0,12.0,43,0.00,,,0.00,Weather View 32 v70,2013-04-06 00:06:00,
2013-04-05 19:11:00,67.4,44.1,30.03,SE,127,6.0,12.0,43,0.00,,,0.00,Weather View 32 v70,2013-04-06 00:11:00,
2013-04-05 19:21:00,67.1,44.4,30.02,SE,130,0.0,12.0,44,0.00,,,0.00,Weather View 32 v70,2013-04-06 00:21:00,
2013-04-05 19:26:00,66.9,44.2,30.02,SE,137,0.0,12.0,44,0.00,,,0.00,Weather View 32 v70,2013-04-06 00:26:00,
2013-04-05 19:36:00,66.6,44.5,30.01,SE,135,6.0,12.0,45,0.00,,,0.00,Weather View 32 v70,2013-04-06 00:36:00,
2013-04-05 19:41:00,66.3,44.3,30.02,SSE,156,0.0,12.0,45,0.00,,,0.00,Weather View 32 v70,2013-04-06 00:41:00,
2013-04-05 19:46:00,66.1,44.1,30.01,SE,145,2.0,12.0,45,0.00,,,0.00,Weather View 32 v70,2013-04-06 00:46:00,
2013-04-05 19:55:00,65.9,44.5,30.01,SE,133,2.0,11.0,46,0.00,,,0.00,Weather View 32 v70,2013-04-06 00:55:00,
2013-04-05 20:01:00,65.6,44.8,30.00,SE,136,2.0,11.0,47,0.00,,,0.00,Weather View 32 v70,2013-04-06 01:01:00,
2013-04-05 20:06:00,65.4,44.6,30.00,SSE,154,5.0,11.0,47,0.00,,,0.00,Weather View 32 v70,2013-04-06 01:06:00,
2013-04-05 20:16:00,65.1,44.9,30.00,South,174,6.0,11.0,48,0.00,,,0.00,Weather View 32 v70,2013-04-06 01:16:00,
2013-04-05 20:26:00,64.8,45.1,30.01,SSE,160,4.0,11.0,49,0.00,,,0.00,Weather View 32 v70,2013-04-06 01:26:00,
2013-04-05 20:31:00,64.7,45.1,30.00,SE,141,0.0,11.0,49,0.00,,,0.00,Weather View 32 v70,2013-04-06 01:31:00,
2013-04-05 20:41:00,64.4,45.3,30.00,SSE,152,0.0,11.0,50,0.00,,,0.00,Weather View 32 v70,2013-04-06 01:41:00,
2013-04-05 20:51:00,64.1,45.0,30.01,South,169,0.0,10.0,50,0.00,,,0.00,Weather View 32 v70,2013-04-06 01:51:00,
2013-04-05 20:56:00,64.0,44.9,30.01,SSE,164,0.0,10.0,50,0.00,,,0.00,Weather View 32 v70,2013-04-06 01:56:00,
2013-04-05 21:06:00,63.9,44.8,30.01,South,169,3.0,10.0,50,0.00,,,0.00,Weather View 32 v70,2013-04-06 02:06:00,
2013-04-05 21:11:00,63.8,44.8,30.00,SSE,166,5.0,10.0,50,0.00,,,0.00,Weather View 32 v70,2013-04-06 02:11:00,
2013-04-05 21:16:00,63.7,44.7,30.01,SSE,158,3.0,10.0,50,0.00,,,0.00,Weather View 32 v70,2013-04-06 02:16:00,
2013-04-05 21:26:00,63.5,45.0,30.01,South,175,3.0,9.0,51,0.00,,,0.00,Weather View 32 v70,2013-04-06 02:26:00,
2013-04-05 21:36:00,63.4,44.4,30.01,South,174,0.0,9.0,50,0.00,,,0.00,Weather View 32 v70,2013-04-06 02:36:00,
2013-04-05 21:41:00,63.2,44.2,30.01,South,177,3.0,9.0,50,0.00,,,0.00,Weather View 32 v70,2013-04-06 02:41:00,
2013-04-05 21:51:00,63.2,44.2,30.01,South,179,4.0,9.0,50,0.00,,,0.00,Weather View 32 v70,2013-04-06 02:51:00,
2013-04-05 21:57:00,63.1,44.6,30.02,South,172,0.0,9.0,51,0.00,,,0.00,Weather View 32 v70,2013-04-06 02:57:00,
2013-04-05 22:06:00,62.8,44.4,30.01,South,171,3.0,9.0,51,0.00,,,0.00,Weather View 32 v70,2013-04-06 03:06:00,
2013-04-05 22:16:00,62.7,44.8,30.01,South,175,5.0,12.0,52,0.00,,,0.00,Weather View 32 v70,2013-04-06 03:16:00,
2013-04-05 22:26:00,62.5,44.6,30.01,South,172,3.0,12.0,52,0.00,,,0.00,Weather View 32 v70,2013-04-06 03:26:00,
2013-04-05 22:31:00,62.3,44.9,30.01,South,171,7.0,12.0,53,0.00,,,0.00,Weather View 32 v70,2013-04-06 03:31:00,
2013-04-05 22:36:00,62.2,44.8,30.01,South,176,6.0,12.0,53,0.00,,,0.00,Weather View 32 v70,2013-04-06 03:36:00,
2013-04-05 22:41:00,62.2,44.8,30.01,SSE,162,5.0,12.0,53,0.00,,,0.00,Weather View 32 v70,2013-04-06 03:41:00,
2013-04-05 22:51:00,61.8,44.9,30.01,SSW,195,3.0,13.0,54,0.00,,,0.00,Weather View 32 v70,2013-04-06 03:51:00,
2013-04-05 22:56:00,61.7,44.8,30.00,South,170,7.0,13.0,54,0.00,,,0.00,Weather View 32 v70,2013-04-06 03:56:00,
2013-04-05 23:01:00,61.6,44.8,30.00,SSE,161,9.0,13.0,54,0.00,,,0.00,Weather View 32 v70,2013-04-06 04:01:00,
2013-04-05 23:06:00,61.6,44.8,30.00,SSE,157,3.0,13.0,54,0.00,,,0.00,Weather View 32 v70,2013-04-06 04:06:00,
2013-04-05 23:16:00,61.4,45.0,29.99,South,172,6.0,13.0,55,0.00,,,0.00,Weather View 32 v70,2013-04-06 04:16:00,
2013-04-05 23:26:00,61.2,44.9,29.99,SSE,164,8.0,13.0,55,0.00,,,0.00,Weather View 32 v70,2013-04-06 04:26:00,
2013-04-05 23:31:00,61.3,45.0,29.99,SSE,154,5.0,13.0,55,0.00,,,0.00,Weather View 32 v70,2013-04-06 04:31:00,
2013-04-05 23:36:00,61.3,45.0,29.99,SSE,167,1.0,13.0,55,0.00,,,0.00,Weather View 32 v70,2013-04-06 04:36:00,
2013-04-05 23:46:00,61.4,45.0,29.99,South,170,5.0,13.0,55,0.00,,,0.00,Weather View 32 v70,2013-04-06 04:46:00,
2013-04-05 23:51:00,61.5,45.1,29.98,South,172,6.0,16.0,55,0.00,,,0.00,Weather View 32 v70,2013-04-06 04:51:00,
2013-04-05 23:56:00,61.5,45.1,29.98,SE,139,8.0,16.0,55,0.00,,,0.00,Weather View 32 v70,2013-04-06 04:56:00,
2013-04-05 23:58:00,61.5,45.1,29.98,SE,139,8.0,16.0,55,0.00,,,0.00,Weather View 32 v70,2013-04-06 04:58:00,